sensor_id;sensor_type;location;lat;lon;timestamp;P1;durP1;ratioP1;P2;durP2;ratioP2
4839;SDS011;2434;48.486;7.964;2022-08-21T00:01:51;4.33;;;2.10;;
4839;SDS011;2434;48.486;7.964;2022-08-21T00:04:20;3.37;;;2.00;;
4839;SDS011;2434;48.486;7.964;2022-08-21T00:06:55;1.87;;;1.77;;
4839;SDS011;2434;48.486;7.964;2022-08-21T00:09:24;7.30;;;2.43;;
4839;SDS011;2434;48.486;7.964;2022-08-21T00:11:53;3.70;;;1.90;;
4839;SDS011;2434;48.486;7.964;2022-08-21T00:14:21;3.63;;;1.90;;
4839;SDS011;2434;48.486;7.964;2022-08-21T00:16:49;4.93;;;2.20;;
4839;SDS011;2434;48.486;7.964;2022-08-21T00:19:26;7.83;;;1.73;;
4839;SDS011;2434;48.486;7.964;2022-08-21T00:21:55;7.00;;;2.00;;
4839;SDS011;2434;48.486;7.964;2022-08-21T00:24:23;2.60;;;1.80;;
4839;SDS011;2434;48.486;7.964;2022-08-21T00:26:53;3.63;;;2.00;;
4839;SDS011;2434;48.486;7.964;2022-08-21T00:29:21;5.23;;;2.00;;
4839;SDS011;2434;48.486;7.964;2022-08-21T00:31:50;3.40;;;2.00;;
4839;SDS011;2434;48.486;7.964;2022-08-21T00:34:18;4.07;;;1.80;;
4839;SDS011;2434;48.486;7.964;2022-08-21T00:36:48;3.10;;;1.43;;
4839;SDS011;2434;48.486;7.964;2022-08-21T00:39:16;4.80;;;1.90;;
4839;SDS011;2434;48.486;7.964;2022-08-21T00:41:44;6.47;;;2.30;;
4839;SDS011;2434;48.486;7.964;2022-08-21T00:44:13;2.60;;;2.33;;
4839;SDS011;2434;48.486;7.964;2022-08-21T00:46:43;2.17;;;1.90;;
4839;SDS011;2434;48.486;7.964;2022-08-21T00:49:11;4.97;;;2.10;;
4839;SDS011;2434;48.486;7.964;2022-08-21T00:51:42;6.17;;;2.13;;
4839;SDS011;2434;48.486;7.964;2022-08-21T00:54:15;2.07;;;1.93;;
4839;SDS011;2434;48.486;7.964;2022-08-21T00:56:47;3.20;;;2.23;;
4839;SDS011;2434;48.486;7.964;2022-08-21T00:59:20;2.90;;;2.30;;
4839;SDS011;2434;48.486;7.964;2022-08-21T01:01:49;5.23;;;2.80;;
4839;SDS011;2434;48.486;7.964;2022-08-21T01:04:18;2.40;;;2.03;;
4839;SDS011;2434;48.486;7.964;2022-08-21T01:06:48;3.93;;;2.40;;
4839;SDS011;2434;48.486;7.964;2022-08-21T01:09:19;3.23;;;2.30;;
4839;SDS011;2434;48.486;7.964;2022-08-21T01:11:47;3.87;;;2.30;;
4839;SDS011;2434;48.486;7.964;2022-08-21T01:14:16;5.23;;;2.47;;
4839;SDS011;2434;48.486;7.964;2022-08-21T01:16:47;5.40;;;2.70;;
4839;SDS011;2434;48.486;7.964;2022-08-21T01:19:18;4.40;;;2.53;;
4839;SDS011;2434;48.486;7.964;2022-08-21T01:21:49;5.47;;;1.97;;
4839;SDS011;2434;48.486;7.964;2022-08-21T01:24:18;4.43;;;2.20;;
4839;SDS011;2434;48.486;7.964;2022-08-21T01:26:46;6.93;;;2.13;;
4839;SDS011;2434;48.486;7.964;2022-08-21T01:29:20;3.40;;;2.13;;
4839;SDS011;2434;48.486;7.964;2022-08-21T01:31:56;3.60;;;2.30;;
4839;SDS011;2434;48.486;7.964;2022-08-21T01:34:25;6.87;;;2.77;;
4839;SDS011;2434;48.486;7.964;2022-08-21T01:36:55;8.60;;;2.87;;
4839;SDS011;2434;48.486;7.964;2022-08-21T01:39:23;3.90;;;2.70;;
4839;SDS011;2434;48.486;7.964;2022-08-21T01:41:51;3.57;;;2.20;;
4839;SDS011;2434;48.486;7.964;2022-08-21T01:44:20;3.40;;;2.90;;
4839;SDS011;2434;48.486;7.964;2022-08-21T01:46:49;2.67;;;2.30;;
4839;SDS011;2434;48.486;7.964;2022-08-21T01:49:18;5.90;;;3.13;;
4839;SDS011;2434;48.486;7.964;2022-08-21T01:51:47;6.40;;;3.00;;
4839;SDS011;2434;48.486;7.964;2022-08-21T01:54:17;6.73;;;2.27;;
4839;SDS011;2434;48.486;7.964;2022-08-21T01:56:46;3.17;;;2.60;;
4839;SDS011;2434;48.486;7.964;2022-08-21T01:59:17;5.83;;;2.83;;
4839;SDS011;2434;48.486;7.964;2022-08-21T02:01:46;3.57;;;2.17;;
4839;SDS011;2434;48.486;7.964;2022-08-21T02:04:14;8.13;;;1.97;;
4839;SDS011;2434;48.486;7.964;2022-08-21T02:06:43;5.03;;;2.83;;
4839;SDS011;2434;48.486;7.964;2022-08-21T02:09:12;4.03;;;2.80;;
4839;SDS011;2434;48.486;7.964;2022-08-21T02:11:43;6.10;;;2.20;;
4839;SDS011;2434;48.486;7.964;2022-08-21T02:14:12;4.53;;;2.90;;
4839;SDS011;2434;48.486;7.964;2022-08-21T02:16:58;4.73;;;2.30;;
4839;SDS011;2434;48.486;7.964;2022-08-21T02:19:35;4.40;;;2.93;;
4839;SDS011;2434;48.486;7.964;2022-08-21T02:22:06;15.00;;;2.67;;
4839;SDS011;2434;48.486;7.964;2022-08-21T02:24:36;7.00;;;2.90;;
4839;SDS011;2434;48.486;7.964;2022-08-21T02:27:22;4.47;;;3.17;;
4839;SDS011;2434;48.486;7.964;2022-08-21T02:29:53;6.33;;;2.67;;
4839;SDS011;2434;48.486;7.964;2022-08-21T02:32:23;4.93;;;2.60;;
4839;SDS011;2434;48.486;7.964;2022-08-21T02:34:52;6.53;;;2.67;;
4839;SDS011;2434;48.486;7.964;2022-08-21T02:37:20;2.30;;;2.10;;
4839;SDS011;2434;48.486;7.964;2022-08-21T02:39:49;4.17;;;2.40;;
4839;SDS011;2434;48.486;7.964;2022-08-21T02:42:18;4.93;;;2.97;;
4839;SDS011;2434;48.486;7.964;2022-08-21T02:44:48;5.03;;;2.60;;
4839;SDS011;2434;48.486;7.964;2022-08-21T02:47:16;5.73;;;3.10;;
4839;SDS011;2434;48.486;7.964;2022-08-21T02:49:44;4.70;;;2.60;;
4839;SDS011;2434;48.486;7.964;2022-08-21T02:52:12;7.07;;;3.40;;
4839;SDS011;2434;48.486;7.964;2022-08-21T02:54:41;3.33;;;2.77;;
4839;SDS011;2434;48.486;7.964;2022-08-21T02:57:09;3.80;;;2.93;;
4839;SDS011;2434;48.486;7.964;2022-08-21T02:59:37;4.07;;;2.70;;
4839;SDS011;2434;48.486;7.964;2022-08-21T03:02:08;3.37;;;2.40;;
4839;SDS011;2434;48.486;7.964;2022-08-21T03:04:38;11.20;;;3.07;;
4839;SDS011;2434;48.486;7.964;2022-08-21T03:07:12;6.67;;;2.53;;
4839;SDS011;2434;48.486;7.964;2022-08-21T03:09:41;6.03;;;3.03;;
4839;SDS011;2434;48.486;7.964;2022-08-21T03:12:20;3.40;;;2.30;;
4839;SDS011;2434;48.486;7.964;2022-08-21T03:14:49;6.03;;;2.80;;
4839;SDS011;2434;48.486;7.964;2022-08-21T03:17:19;4.23;;;2.63;;
4839;SDS011;2434;48.486;7.964;2022-08-21T03:19:55;5.60;;;2.87;;
4839;SDS011;2434;48.486;7.964;2022-08-21T03:22:24;3.97;;;2.77;;
4839;SDS011;2434;48.486;7.964;2022-08-21T03:24:56;8.00;;;2.50;;
4839;SDS011;2434;48.486;7.964;2022-08-21T03:27:25;6.47;;;2.97;;
4839;SDS011;2434;48.486;7.964;2022-08-21T03:29:55;5.63;;;2.87;;
4839;SDS011;2434;48.486;7.964;2022-08-21T03:32:25;5.93;;;3.00;;
4839;SDS011;2434;48.486;7.964;2022-08-21T03:34:53;8.50;;;2.77;;
4839;SDS011;2434;48.486;7.964;2022-08-21T03:37:22;5.20;;;3.10;;
4839;SDS011;2434;48.486;7.964;2022-08-21T03:39:51;9.57;;;2.50;;
4839;SDS011;2434;48.486;7.964;2022-08-21T03:42:19;7.83;;;3.40;;
4839;SDS011;2434;48.486;7.964;2022-08-21T03:44:47;4.87;;;2.60;;
4839;SDS011;2434;48.486;7.964;2022-08-21T03:47:16;5.60;;;2.77;;
4839;SDS011;2434;48.486;7.964;2022-08-21T03:49:46;3.57;;;2.63;;
4839;SDS011;2434;48.486;7.964;2022-08-21T03:52:14;5.60;;;2.80;;
4839;SDS011;2434;48.486;7.964;2022-08-21T03:54:44;3.83;;;3.03;;
4839;SDS011;2434;48.486;7.964;2022-08-21T03:57:13;4.50;;;2.93;;
4839;SDS011;2434;48.486;7.964;2022-08-21T03:59:42;4.50;;;2.63;;
4839;SDS011;2434;48.486;7.964;2022-08-21T04:02:10;3.57;;;2.73;;
4839;SDS011;2434;48.486;7.964;2022-08-21T04:04:42;5.80;;;2.97;;
4839;SDS011;2434;48.486;7.964;2022-08-21T04:07:12;3.73;;;2.73;;
4839;SDS011;2434;48.486;7.964;2022-08-21T04:09:40;6.60;;;3.97;;
4839;SDS011;2434;48.486;7.964;2022-08-21T04:12:08;5.03;;;2.23;;
4839;SDS011;2434;48.486;7.964;2022-08-21T04:14:37;5.90;;;3.20;;
4839;SDS011;2434;48.486;7.964;2022-08-21T04:17:05;4.03;;;2.97;;
4839;SDS011;2434;48.486;7.964;2022-08-21T04:19:33;5.80;;;2.90;;
4839;SDS011;2434;48.486;7.964;2022-08-21T04:22:02;4.67;;;2.60;;
4839;SDS011;2434;48.486;7.964;2022-08-21T04:24:32;4.30;;;2.50;;
4839;SDS011;2434;48.486;7.964;2022-08-21T04:27:01;3.30;;;3.00;;
4839;SDS011;2434;48.486;7.964;2022-08-21T04:29:29;8.17;;;2.80;;
4839;SDS011;2434;48.486;7.964;2022-08-21T04:31:57;4.00;;;2.77;;
4839;SDS011;2434;48.486;7.964;2022-08-21T04:34:25;5.53;;;2.37;;
4839;SDS011;2434;48.486;7.964;2022-08-21T04:36:54;10.30;;;3.17;;
4839;SDS011;2434;48.486;7.964;2022-08-21T04:39:22;5.23;;;3.03;;
4839;SDS011;2434;48.486;7.964;2022-08-21T04:41:56;4.17;;;2.73;;
4839;SDS011;2434;48.486;7.964;2022-08-21T04:44:24;4.67;;;3.00;;
4839;SDS011;2434;48.486;7.964;2022-08-21T04:46:53;4.40;;;2.80;;
4839;SDS011;2434;48.486;7.964;2022-08-21T04:49:21;4.00;;;2.30;;
4839;SDS011;2434;48.486;7.964;2022-08-21T04:51:49;7.40;;;3.30;;
4839;SDS011;2434;48.486;7.964;2022-08-21T04:54:19;7.57;;;2.40;;
4839;SDS011;2434;48.486;7.964;2022-08-21T04:56:49;11.97;;;4.10;;
4839;SDS011;2434;48.486;7.964;2022-08-21T04:59:24;5.70;;;3.40;;
4839;SDS011;2434;48.486;7.964;2022-08-21T05:01:55;5.97;;;3.40;;
4839;SDS011;2434;48.486;7.964;2022-08-21T05:04:24;6.50;;;3.10;;
4839;SDS011;2434;48.486;7.964;2022-08-21T05:06:56;8.70;;;2.77;;
4839;SDS011;2434;48.486;7.964;2022-08-21T05:09:27;5.93;;;2.60;;
4839;SDS011;2434;48.486;7.964;2022-08-21T05:11:56;14.30;;;3.30;;
4839;SDS011;2434;48.486;7.964;2022-08-21T05:14:26;4.73;;;2.40;;
4839;SDS011;2434;48.486;7.964;2022-08-21T05:16:54;2.97;;;2.57;;
4839;SDS011;2434;48.486;7.964;2022-08-21T05:19:22;3.77;;;2.60;;
4839;SDS011;2434;48.486;7.964;2022-08-21T05:21:51;5.33;;;2.87;;
4839;SDS011;2434;48.486;7.964;2022-08-21T05:24:20;5.27;;;2.70;;
4839;SDS011;2434;48.486;7.964;2022-08-21T05:26:48;3.13;;;2.83;;
4839;SDS011;2434;48.486;7.964;2022-08-21T05:29:16;3.83;;;2.77;;
4839;SDS011;2434;48.486;7.964;2022-08-21T05:31:47;5.93;;;2.90;;
4839;SDS011;2434;48.486;7.964;2022-08-21T05:34:18;5.50;;;3.07;;
4839;SDS011;2434;48.486;7.964;2022-08-21T05:36:48;4.43;;;2.90;;
4839;SDS011;2434;48.486;7.964;2022-08-21T05:39:16;5.60;;;2.57;;
4839;SDS011;2434;48.486;7.964;2022-08-21T05:41:44;5.37;;;3.17;;
4839;SDS011;2434;48.486;7.964;2022-08-21T05:44:14;3.37;;;2.63;;
4839;SDS011;2434;48.486;7.964;2022-08-21T05:46:42;9.53;;;3.23;;
4839;SDS011;2434;48.486;7.964;2022-08-21T05:49:12;3.80;;;2.50;;
4839;SDS011;2434;48.486;7.964;2022-08-21T05:51:40;5.43;;;2.90;;
4839;SDS011;2434;48.486;7.964;2022-08-21T05:54:08;3.10;;;2.83;;
4839;SDS011;2434;48.486;7.964;2022-08-21T05:56:37;8.63;;;3.70;;
4839;SDS011;2434;48.486;7.964;2022-08-21T05:59:05;9.07;;;3.40;;
4839;SDS011;2434;48.486;7.964;2022-08-21T06:01:34;3.53;;;2.83;;
4839;SDS011;2434;48.486;7.964;2022-08-21T06:04:03;11.00;;;3.37;;
4839;SDS011;2434;48.486;7.964;2022-08-21T06:06:33;5.93;;;3.77;;
4839;SDS011;2434;48.486;7.964;2022-08-21T06:09:02;7.60;;;4.03;;
4839;SDS011;2434;48.486;7.964;2022-08-21T06:11:31;4.90;;;2.83;;
4839;SDS011;2434;48.486;7.964;2022-08-21T06:14:00;3.90;;;3.40;;
4839;SDS011;2434;48.486;7.964;2022-08-21T06:16:28;4.47;;;3.33;;
4839;SDS011;2434;48.486;7.964;2022-08-21T06:18:57;5.23;;;3.00;;
4839;SDS011;2434;48.486;7.964;2022-08-21T06:21:28;4.53;;;3.50;;
4839;SDS011;2434;48.486;7.964;2022-08-21T06:23:58;3.93;;;3.33;;
4839;SDS011;2434;48.486;7.964;2022-08-21T06:26:26;4.90;;;3.90;;
4839;SDS011;2434;48.486;7.964;2022-08-21T06:28:55;3.90;;;3.47;;
4839;SDS011;2434;48.486;7.964;2022-08-21T06:31:24;8.37;;;3.50;;
4839;SDS011;2434;48.486;7.964;2022-08-21T06:33:54;5.73;;;3.73;;
4839;SDS011;2434;48.486;7.964;2022-08-21T06:36:23;7.87;;;4.00;;
4839;SDS011;2434;48.486;7.964;2022-08-21T06:38:52;6.37;;;3.40;;
4839;SDS011;2434;48.486;7.964;2022-08-21T06:41:24;4.53;;;3.67;;
4839;SDS011;2434;48.486;7.964;2022-08-21T06:43:53;4.93;;;3.37;;
4839;SDS011;2434;48.486;7.964;2022-08-21T06:46:23;5.97;;;3.60;;
4839;SDS011;2434;48.486;7.964;2022-08-21T06:48:52;10.87;;;3.57;;
4839;SDS011;2434;48.486;7.964;2022-08-21T06:51:22;10.73;;;3.60;;
4839;SDS011;2434;48.486;7.964;2022-08-21T06:53:52;6.87;;;3.67;;
4839;SDS011;2434;48.486;7.964;2022-08-21T06:56:20;6.57;;;3.63;;
4839;SDS011;2434;48.486;7.964;2022-08-21T06:58:50;4.37;;;3.57;;
4839;SDS011;2434;48.486;7.964;2022-08-21T07:01:19;8.10;;;3.70;;
4839;SDS011;2434;48.486;7.964;2022-08-21T07:03:50;7.80;;;4.90;;
4839;SDS011;2434;48.486;7.964;2022-08-21T07:06:18;9.60;;;4.50;;
4839;SDS011;2434;48.486;7.964;2022-08-21T07:08:47;5.63;;;3.90;;
4839;SDS011;2434;48.486;7.964;2022-08-21T07:11:17;8.60;;;4.17;;
4839;SDS011;2434;48.486;7.964;2022-08-21T07:13:47;8.80;;;4.90;;
4839;SDS011;2434;48.486;7.964;2022-08-21T07:16:18;8.13;;;4.53;;
4839;SDS011;2434;48.486;7.964;2022-08-21T07:18:47;5.70;;;4.23;;
4839;SDS011;2434;48.486;7.964;2022-08-21T07:21:16;6.33;;;4.30;;
4839;SDS011;2434;48.486;7.964;2022-08-21T07:23:51;6.43;;;3.80;;
4839;SDS011;2434;48.486;7.964;2022-08-21T07:26:20;4.80;;;4.20;;
4839;SDS011;2434;48.486;7.964;2022-08-21T07:28:50;5.67;;;3.90;;
4839;SDS011;2434;48.486;7.964;2022-08-21T07:31:20;6.97;;;4.67;;
4839;SDS011;2434;48.486;7.964;2022-08-21T07:33:51;6.53;;;3.93;;
4839;SDS011;2434;48.486;7.964;2022-08-21T07:36:19;9.20;;;5.40;;
4839;SDS011;2434;48.486;7.964;2022-08-21T07:38:48;5.90;;;4.27;;
4839;SDS011;2434;48.486;7.964;2022-08-21T07:41:19;12.03;;;4.50;;
4839;SDS011;2434;48.486;7.964;2022-08-21T07:43:49;5.83;;;3.50;;
4839;SDS011;2434;48.486;7.964;2022-08-21T07:46:19;10.80;;;4.10;;
4839;SDS011;2434;48.486;7.964;2022-08-21T07:48:48;11.37;;;4.83;;
4839;SDS011;2434;48.486;7.964;2022-08-21T07:51:19;9.47;;;3.57;;
4839;SDS011;2434;48.486;7.964;2022-08-21T07:53:50;7.17;;;3.63;;
4839;SDS011;2434;48.486;7.964;2022-08-21T07:56:20;4.93;;;3.73;;
4839;SDS011;2434;48.486;7.964;2022-08-21T07:58:49;8.80;;;4.50;;
4839;SDS011;2434;48.486;7.964;2022-08-21T08:01:17;8.40;;;3.83;;
4839;SDS011;2434;48.486;7.964;2022-08-21T08:03:47;8.23;;;3.80;;
4839;SDS011;2434;48.486;7.964;2022-08-21T08:06:16;9.87;;;4.20;;
4839;SDS011;2434;48.486;7.964;2022-08-21T08:08:45;6.40;;;3.20;;
4839;SDS011;2434;48.486;7.964;2022-08-21T08:11:13;10.07;;;3.97;;
4839;SDS011;2434;48.486;7.964;2022-08-21T08:13:43;7.50;;;3.27;;
4839;SDS011;2434;48.486;7.964;2022-08-21T08:16:12;7.77;;;3.53;;
4839;SDS011;2434;48.486;7.964;2022-08-21T08:18:41;6.70;;;3.77;;
4839;SDS011;2434;48.486;7.964;2022-08-21T08:21:12;5.30;;;3.20;;
4839;SDS011;2434;48.486;7.964;2022-08-21T08:23:44;6.53;;;3.90;;
4839;SDS011;2434;48.486;7.964;2022-08-21T08:26:12;8.50;;;3.20;;
4839;SDS011;2434;48.486;7.964;2022-08-21T08:28:42;5.43;;;3.47;;
4839;SDS011;2434;48.486;7.964;2022-08-21T08:31:10;6.13;;;3.10;;
4839;SDS011;2434;48.486;7.964;2022-08-21T08:33:38;8.53;;;3.17;;
4839;SDS011;2434;48.486;7.964;2022-08-21T08:36:13;6.23;;;3.13;;
4839;SDS011;2434;48.486;7.964;2022-08-21T08:38:45;7.37;;;3.30;;
4839;SDS011;2434;48.486;7.964;2022-08-21T08:41:16;4.40;;;2.80;;
4839;SDS011;2434;48.486;7.964;2022-08-21T08:43:48;9.40;;;3.30;;
4839;SDS011;2434;48.486;7.964;2022-08-21T08:46:20;8.30;;;3.10;;
4839;SDS011;2434;48.486;7.964;2022-08-21T08:48:58;9.83;;;3.73;;
4839;SDS011;2434;48.486;7.964;2022-08-21T08:51:37;10.10;;;3.97;;
4839;SDS011;2434;48.486;7.964;2022-08-21T08:54:14;10.93;;;3.37;;
4839;SDS011;2434;48.486;7.964;2022-08-21T08:56:47;6.63;;;3.13;;
4839;SDS011;2434;48.486;7.964;2022-08-21T08:59:18;4.50;;;3.30;;
4839;SDS011;2434;48.486;7.964;2022-08-21T09:01:50;9.73;;;2.93;;
4839;SDS011;2434;48.486;7.964;2022-08-21T09:04:21;5.77;;;2.97;;
4839;SDS011;2434;48.486;7.964;2022-08-21T09:07:07;6.10;;;3.33;;
4839;SDS011;2434;48.486;7.964;2022-08-21T09:09:48;10.47;;;3.73;;
4839;SDS011;2434;48.486;7.964;2022-08-21T09:12:33;6.17;;;3.40;;
4839;SDS011;2434;48.486;7.964;2022-08-21T09:15:09;10.20;;;3.80;;
4839;SDS011;2434;48.486;7.964;2022-08-21T09:17:49;15.03;;;3.50;;
4839;SDS011;2434;48.486;7.964;2022-08-21T09:20:36;9.23;;;4.00;;
4839;SDS011;2434;48.486;7.964;2022-08-21T09:23:12;5.77;;;3.17;;
4839;SDS011;2434;48.486;7.964;2022-08-21T09:25:53;7.30;;;3.07;;
4839;SDS011;2434;48.486;7.964;2022-08-21T09:28:26;7.77;;;3.37;;
4839;SDS011;2434;48.486;7.964;2022-08-21T09:30:54;9.00;;;3.70;;
4839;SDS011;2434;48.486;7.964;2022-08-21T09:33:28;4.60;;;3.10;;
4839;SDS011;2434;48.486;7.964;2022-08-21T09:35:57;9.47;;;3.20;;
4839;SDS011;2434;48.486;7.964;2022-08-21T09:38:29;9.83;;;3.70;;
4839;SDS011;2434;48.486;7.964;2022-08-21T09:41:01;8.30;;;3.70;;
4839;SDS011;2434;48.486;7.964;2022-08-21T09:43:31;8.87;;;3.47;;
4839;SDS011;2434;48.486;7.964;2022-08-21T09:46:02;7.40;;;3.00;;
4839;SDS011;2434;48.486;7.964;2022-08-21T09:48:41;3.30;;;2.50;;
4839;SDS011;2434;48.486;7.964;2022-08-21T09:51:13;7.07;;;3.30;;
4839;SDS011;2434;48.486;7.964;2022-08-21T09:53:46;9.97;;;2.90;;
4839;SDS011;2434;48.486;7.964;2022-08-21T09:56:20;8.07;;;3.33;;
4839;SDS011;2434;48.486;7.964;2022-08-21T09:59:15;5.00;;;3.60;;
4839;SDS011;2434;48.486;7.964;2022-08-21T10:01:47;4.70;;;3.37;;
4839;SDS011;2434;48.486;7.964;2022-08-21T10:04:19;5.97;;;2.90;;
4839;SDS011;2434;48.486;7.964;2022-08-21T10:06:49;12.70;;;3.23;;
4839;SDS011;2434;48.486;7.964;2022-08-21T10:09:24;10.03;;;3.10;;
4839;SDS011;2434;48.486;7.964;2022-08-21T10:11:56;3.50;;;2.60;;
4839;SDS011;2434;48.486;7.964;2022-08-21T10:14:40;7.70;;;3.03;;
4839;SDS011;2434;48.486;7.964;2022-08-21T10:17:17;13.40;;;3.20;;
4839;SDS011;2434;48.486;7.964;2022-08-21T10:19:55;7.17;;;3.20;;
4839;SDS011;2434;48.486;7.964;2022-08-21T10:22:33;7.47;;;3.10;;
4839;SDS011;2434;48.486;7.964;2022-08-21T10:25:12;4.23;;;3.03;;
4839;SDS011;2434;48.486;7.964;2022-08-21T10:27:47;8.97;;;3.10;;
4839;SDS011;2434;48.486;7.964;2022-08-21T10:30:41;7.40;;;3.50;;
4839;SDS011;2434;48.486;7.964;2022-08-21T10:33:20;4.10;;;2.37;;
4839;SDS011;2434;48.486;7.964;2022-08-21T10:35:57;4.33;;;2.77;;
4839;SDS011;2434;48.486;7.964;2022-08-21T10:38:36;5.53;;;2.70;;
4839;SDS011;2434;48.486;7.964;2022-08-21T10:44:43;4.07;;;2.70;;
4839;SDS011;2434;48.486;7.964;2022-08-21T10:47:17;7.60;;;2.80;;
4839;SDS011;2434;48.486;7.964;2022-08-21T10:49:52;14.87;;;2.80;;
4839;SDS011;2434;48.486;7.964;2022-08-21T10:52:32;6.47;;;3.30;;
4839;SDS011;2434;48.486;7.964;2022-08-21T10:55:16;9.47;;;3.10;;
4839;SDS011;2434;48.486;7.964;2022-08-21T10:57:48;3.23;;;2.50;;
4839;SDS011;2434;48.486;7.964;2022-08-21T11:00:21;5.87;;;2.10;;
4839;SDS011;2434;48.486;7.964;2022-08-21T11:02:53;5.43;;;2.27;;
4839;SDS011;2434;48.486;7.964;2022-08-21T11:05:31;4.70;;;2.50;;
4839;SDS011;2434;48.486;7.964;2022-08-21T11:08:04;2.57;;;1.90;;
4839;SDS011;2434;48.486;7.964;2022-08-21T11:10:37;7.83;;;2.50;;
4839;SDS011;2434;48.486;7.964;2022-08-21T11:13:27;3.33;;;2.13;;
4839;SDS011;2434;48.486;7.964;2022-08-21T11:16:05;2.63;;;2.30;;
4839;SDS011;2434;48.486;7.964;2022-08-21T11:18:41;5.60;;;2.80;;
4839;SDS011;2434;48.486;7.964;2022-08-21T11:21:26;13.53;;;2.70;;
4839;SDS011;2434;48.486;7.964;2022-08-21T11:24:02;6.87;;;2.87;;
4839;SDS011;2434;48.486;7.964;2022-08-21T11:26:43;4.20;;;2.60;;
4839;SDS011;2434;48.486;7.964;2022-08-21T11:29:24;6.57;;;2.70;;
4839;SDS011;2434;48.486;7.964;2022-08-21T11:32:01;5.70;;;2.00;;
4839;SDS011;2434;48.486;7.964;2022-08-21T11:34:54;4.70;;;2.17;;
4839;SDS011;2434;48.486;7.964;2022-08-21T11:37:34;8.37;;;2.40;;
4839;SDS011;2434;48.486;7.964;2022-08-21T11:40:16;6.63;;;2.13;;
4839;SDS011;2434;48.486;7.964;2022-08-21T11:43:01;7.43;;;2.40;;
4839;SDS011;2434;48.486;7.964;2022-08-21T11:45:40;4.80;;;2.27;;
4839;SDS011;2434;48.486;7.964;2022-08-21T11:48:15;10.23;;;3.03;;
4839;SDS011;2434;48.486;7.964;2022-08-21T11:50:53;9.80;;;3.17;;
4839;SDS011;2434;48.486;7.964;2022-08-21T11:53:24;4.63;;;2.57;;
4839;SDS011;2434;48.486;7.964;2022-08-21T11:56:00;2.37;;;2.17;;
4839;SDS011;2434;48.486;7.964;2022-08-21T11:58:35;4.00;;;2.70;;
4839;SDS011;2434;48.486;7.964;2022-08-21T12:01:07;4.63;;;2.13;;
4839;SDS011;2434;48.486;7.964;2022-08-21T12:03:40;3.93;;;2.07;;
4839;SDS011;2434;48.486;7.964;2022-08-21T12:06:27;3.80;;;1.77;;
4839;SDS011;2434;48.486;7.964;2022-08-21T12:08:58;5.60;;;2.10;;
4839;SDS011;2434;48.486;7.964;2022-08-21T12:11:28;3.10;;;2.10;;
4839;SDS011;2434;48.486;7.964;2022-08-21T12:13:58;2.43;;;1.93;;
4839;SDS011;2434;48.486;7.964;2022-08-21T12:16:29;1.93;;;1.73;;
4839;SDS011;2434;48.486;7.964;2022-08-21T12:19:04;2.77;;;2.10;;
4839;SDS011;2434;48.486;7.964;2022-08-21T12:21:47;5.23;;;2.10;;
4839;SDS011;2434;48.486;7.964;2022-08-21T12:24:18;6.23;;;2.50;;
4839;SDS011;2434;48.486;7.964;2022-08-21T12:26:58;2.97;;;1.90;;
4839;SDS011;2434;48.486;7.964;2022-08-21T12:29:29;4.10;;;2.10;;
4839;SDS011;2434;48.486;7.964;2022-08-21T12:32:01;4.00;;;2.23;;
4839;SDS011;2434;48.486;7.964;2022-08-21T12:34:35;8.53;;;2.13;;
4839;SDS011;2434;48.486;7.964;2022-08-21T12:37:06;2.43;;;2.20;;
4839;SDS011;2434;48.486;7.964;2022-08-21T12:39:43;4.87;;;2.20;;
4839;SDS011;2434;48.486;7.964;2022-08-21T12:42:15;3.37;;;2.03;;
4839;SDS011;2434;48.486;7.964;2022-08-21T12:44:47;6.87;;;2.10;;
4839;SDS011;2434;48.486;7.964;2022-08-21T12:47:21;2.57;;;1.87;;
4839;SDS011;2434;48.486;7.964;2022-08-21T12:50:00;7.50;;;2.33;;
4839;SDS011;2434;48.486;7.964;2022-08-21T12:52:33;3.83;;;1.70;;
4839;SDS011;2434;48.486;7.964;2022-08-21T12:55:05;5.30;;;1.70;;
4839;SDS011;2434;48.486;7.964;2022-08-21T12:57:35;2.53;;;1.70;;
4839;SDS011;2434;48.486;7.964;2022-08-21T13:00:06;3.27;;;1.93;;
4839;SDS011;2434;48.486;7.964;2022-08-21T13:02:38;3.83;;;1.87;;
4839;SDS011;2434;48.486;7.964;2022-08-21T13:05:13;4.83;;;1.90;;
4839;SDS011;2434;48.486;7.964;2022-08-21T13:07:47;4.60;;;1.80;;
4839;SDS011;2434;48.486;7.964;2022-08-21T13:10:18;4.93;;;1.80;;
4839;SDS011;2434;48.486;7.964;2022-08-21T13:12:49;2.70;;;1.70;;
4839;SDS011;2434;48.486;7.964;2022-08-21T13:15:25;1.93;;;1.40;;
4839;SDS011;2434;48.486;7.964;2022-08-21T13:17:59;2.20;;;1.60;;
4839;SDS011;2434;48.486;7.964;2022-08-21T13:20:31;2.93;;;1.73;;
4839;SDS011;2434;48.486;7.964;2022-08-21T13:23:01;9.60;;;1.60;;
4839;SDS011;2434;48.486;7.964;2022-08-21T13:25:34;3.50;;;1.50;;
4839;SDS011;2434;48.486;7.964;2022-08-21T13:28:04;2.80;;;1.43;;
4839;SDS011;2434;48.486;7.964;2022-08-21T13:30:38;3.57;;;1.80;;
4839;SDS011;2434;48.486;7.964;2022-08-21T13:33:08;2.10;;;1.17;;
4839;SDS011;2434;48.486;7.964;2022-08-21T13:35:47;3.50;;;1.37;;
4839;SDS011;2434;48.486;7.964;2022-08-21T13:38:19;1.73;;;1.13;;
4839;SDS011;2434;48.486;7.964;2022-08-21T13:40:54;4.00;;;1.70;;
4839;SDS011;2434;48.486;7.964;2022-08-21T13:43:26;4.03;;;1.90;;
4839;SDS011;2434;48.486;7.964;2022-08-21T13:45:58;2.93;;;1.50;;
4839;SDS011;2434;48.486;7.964;2022-08-21T13:48:30;2.57;;;1.30;;
4839;SDS011;2434;48.486;7.964;2022-08-21T13:51:02;3.23;;;1.60;;
4839;SDS011;2434;48.486;7.964;2022-08-21T13:53:32;1.80;;;1.23;;
4839;SDS011;2434;48.486;7.964;2022-08-21T13:56:03;1.87;;;1.33;;
4839;SDS011;2434;48.486;7.964;2022-08-21T13:58:41;4.97;;;2.20;;
4839;SDS011;2434;48.486;7.964;2022-08-21T14:01:17;2.83;;;1.30;;
4839;SDS011;2434;48.486;7.964;2022-08-21T14:03:49;2.23;;;1.20;;
4839;SDS011;2434;48.486;7.964;2022-08-21T14:06:22;1.30;;;1.20;;
4839;SDS011;2434;48.486;7.964;2022-08-21T14:08:53;2.37;;;1.53;;
4839;SDS011;2434;48.486;7.964;2022-08-21T14:11:25;3.00;;;1.47;;
4839;SDS011;2434;48.486;7.964;2022-08-21T14:13:58;3.77;;;1.30;;
4839;SDS011;2434;48.486;7.964;2022-08-21T14:16:40;1.93;;;1.40;;
4839;SDS011;2434;48.486;7.964;2022-08-21T14:19:15;3.27;;;1.50;;
4839;SDS011;2434;48.486;7.964;2022-08-21T14:21:49;1.97;;;1.30;;
4839;SDS011;2434;48.486;7.964;2022-08-21T14:24:25;1.60;;;1.30;;
4839;SDS011;2434;48.486;7.964;2022-08-21T14:26:55;1.33;;;1.20;;
4839;SDS011;2434;48.486;7.964;2022-08-21T14:29:26;2.30;;;1.40;;
4839;SDS011;2434;48.486;7.964;2022-08-21T14:31:58;3.73;;;1.40;;
4839;SDS011;2434;48.486;7.964;2022-08-21T14:34:49;1.30;;;1.00;;
4839;SDS011;2434;48.486;7.964;2022-08-21T14:37:21;1.40;;;1.30;;
4839;SDS011;2434;48.486;7.964;2022-08-21T14:39:49;1.80;;;1.50;;
4839;SDS011;2434;48.486;7.964;2022-08-21T14:42:18;3.00;;;1.00;;
4839;SDS011;2434;48.486;7.964;2022-08-21T14:44:46;2.03;;;1.03;;
4839;SDS011;2434;48.486;7.964;2022-08-21T14:47:15;2.60;;;1.37;;
4839;SDS011;2434;48.486;7.964;2022-08-21T14:49:43;1.57;;;1.47;;
4839;SDS011;2434;48.486;7.964;2022-08-21T14:52:11;1.23;;;1.10;;
4839;SDS011;2434;48.486;7.964;2022-08-21T14:54:41;1.20;;;1.10;;
4839;SDS011;2434;48.486;7.964;2022-08-21T14:57:10;3.27;;;1.33;;
4839;SDS011;2434;48.486;7.964;2022-08-21T14:59:39;2.30;;;0.87;;
4839;SDS011;2434;48.486;7.964;2022-08-21T15:02:08;1.30;;;1.00;;
4839;SDS011;2434;48.486;7.964;2022-08-21T15:04:36;1.03;;;0.90;;
4839;SDS011;2434;48.486;7.964;2022-08-21T15:07:05;4.53;;;1.00;;
4839;SDS011;2434;48.486;7.964;2022-08-21T15:09:33;2.50;;;1.13;;
4839;SDS011;2434;48.486;7.964;2022-08-21T15:12:03;1.97;;;1.30;;
4839;SDS011;2434;48.486;7.964;2022-08-21T15:14:34;1.47;;;1.37;;
4839;SDS011;2434;48.486;7.964;2022-08-21T15:17:06;2.73;;;2.40;;
4839;SDS011;2434;48.486;7.964;2022-08-21T15:19:36;2.13;;;1.30;;
4839;SDS011;2434;48.486;7.964;2022-08-21T15:22:05;3.93;;;3.60;;
4839;SDS011;2434;48.486;7.964;2022-08-21T15:24:44;1.50;;;1.40;;
4839;SDS011;2434;48.486;7.964;2022-08-21T15:27:14;3.53;;;1.20;;
4839;SDS011;2434;48.486;7.964;2022-08-21T15:29:45;1.53;;;0.93;;
4839;SDS011;2434;48.486;7.964;2022-08-21T15:32:17;2.77;;;1.27;;
4839;SDS011;2434;48.486;7.964;2022-08-21T15:34:49;1.43;;;0.87;;
4839;SDS011;2434;48.486;7.964;2022-08-21T15:37:18;1.50;;;0.93;;
4839;SDS011;2434;48.486;7.964;2022-08-21T15:39:47;2.10;;;0.90;;
4839;SDS011;2434;48.486;7.964;2022-08-21T15:42:21;1.67;;;1.07;;
4839;SDS011;2434;48.486;7.964;2022-08-21T15:44:49;1.90;;;0.83;;
4839;SDS011;2434;48.486;7.964;2022-08-21T15:47:20;1.10;;;1.00;;